Cornelia, Georgia
Current Conditions -  °F | °C
As of 3:35 AM on Friday 28 Nov 2014 (Local Time) from KTOC Reporting Station
Clear Clear  
Wind Chill: -3°   Ceiling: Unl
Heat Index:   Visibility: 10mi
Dew Point: -6°   Wind: 5mph
Humidity: 64%   Direction: 330°NNW
Pressure: 30.33"   Gusts: NA
Location:  34.51°N, 83.53°W
Report Text: KTOC 280835Z AUTO 33004KT 10SM CLR 00/M06 A3033 RMK AO2 T00001060
Loading
Personal Weather Stations






























Interactive Weather Map New forecast layout! Learn more

10-Day Weather Forecast

Advertisements
Track Severe Weather on mobile